createdAt,value
2022-09-20T00:01:32.433Z,6.60
2022-09-20T00:04:04.886Z,6.60
2022-09-20T00:06:32.852Z,6.60
2022-09-20T00:09:01.276Z,6.60
2022-09-20T00:11:32.105Z,6.50
2022-09-20T00:14:01.683Z,6.50
2022-09-20T00:16:32.841Z,6.50
2022-09-20T00:19:03.971Z,6.50
2022-09-20T00:21:34.022Z,6.60
2022-09-20T00:24:01.698Z,6.70
2022-09-20T00:26:29.396Z,6.70
2022-09-20T00:28:58.861Z,6.60
2022-09-20T00:31:26.652Z,6.50
2022-09-20T00:34:16.995Z,6.50
2022-09-20T00:36:45.160Z,6.40
2022-09-20T00:39:15.323Z,6.40
2022-09-20T00:41:43.347Z,6.40
2022-09-20T00:44:53.425Z,6.40
2022-09-20T00:47:46.510Z,6.40
2022-09-20T00:50:35.307Z,6.40
2022-09-20T00:53:10.793Z,6.30
2022-09-20T00:55:45.636Z,6.30
2022-09-20T00:58:14.637Z,6.30
2022-09-20T01:00:44.360Z,6.20
2022-09-20T01:03:14.821Z,6.20
2022-09-20T01:05:44.260Z,6.30
2022-09-20T01:08:12.273Z,6.20
2022-09-20T01:10:39.567Z,6.30
2022-09-20T01:13:06.510Z,6.30
2022-09-20T01:15:38.469Z,6.40
2022-09-20T01:18:09.184Z,6.40
2022-09-20T01:20:41.946Z,6.60
2022-09-20T01:23:34.991Z,6.70
2022-09-20T01:26:38.035Z,6.90
2022-09-20T01:29:55.549Z,7.00
2022-09-20T01:32:30.774Z,7.10
2022-09-20T01:35:01.295Z,7.20
2022-09-20T01:37:47.351Z,7.10
2022-09-20T01:40:43.597Z,7.20
2022-09-20T01:43:32.164Z,7.20
2022-09-20T01:46:12.239Z,7.20
2022-09-20T01:48:42.274Z,7.20
2022-09-20T01:52:07.239Z,7.10
2022-09-20T01:55:12.278Z,7.00
2022-09-20T01:57:56.893Z,7.00
2022-09-20T02:00:34.966Z,7.00
2022-09-20T02:03:32.399Z,7.00
2022-09-20T02:06:11.147Z,6.90
2022-09-20T02:09:31.640Z,6.90
2022-09-20T02:12:33.742Z,6.90
2022-09-20T02:15:41.214Z,6.80
2022-09-20T02:18:32.431Z,6.80
2022-09-20T02:21:37.636Z,6.80
2022-09-20T02:24:45.401Z,6.70
2022-09-20T02:27:54.100Z,6.80
2022-09-20T02:30:53.109Z,6.60
2022-09-20T02:33:42.975Z,6.50
2022-09-20T02:36:49.544Z,6.60
2022-09-20T02:39:23.020Z,6.60
2022-09-20T02:42:07.287Z,6.70
2022-09-20T02:45:04.167Z,6.80
2022-09-20T02:47:41.979Z,6.80
2022-09-20T02:50:46.888Z,7.00
2022-09-20T02:54:10.166Z,7.00
2022-09-20T02:56:54.495Z,7.00
2022-09-20T02:59:46.502Z,6.90
2022-09-20T03:03:00.250Z,6.80
2022-09-20T03:05:44.868Z,6.70
2022-09-20T03:08:52.462Z,6.60
2022-09-20T03:11:44.141Z,6.50
2022-09-20T03:14:38.272Z,6.50
2022-09-20T03:17:26.597Z,6.40
2022-09-20T03:20:36.020Z,6.40
2022-09-20T03:24:03.175Z,6.30
2022-09-20T03:27:07.611Z,6.30
2022-09-20T03:30:36.778Z,6.20
2022-09-20T03:33:40.738Z,6.10
2022-09-20T03:36:40.622Z,6.10
2022-09-20T03:39:36.354Z,6.00
2022-09-20T03:42:25.360Z,5.90
2022-09-20T03:45:19.605Z,5.90
2022-09-20T03:48:22.465Z,5.90
2022-09-20T03:51:19.797Z,5.90
2022-09-20T03:54:34.832Z,5.90
2022-09-20T03:57:48.259Z,5.80
2022-09-20T04:00:52.861Z,5.80
2022-09-20T04:03:38.663Z,5.70
2022-09-20T04:06:34.643Z,5.70
2022-09-20T04:09:47.663Z,5.70
2022-09-20T04:12:35.497Z,5.60
2022-09-20T04:15:41.233Z,5.50
2022-09-20T04:18:43.317Z,5.50
2022-09-20T04:21:28.581Z,5.40
2022-09-20T04:24:03.428Z,5.40
2022-09-20T04:26:36.645Z,5.30
2022-09-20T04:29:34.123Z,5.20
2022-09-20T04:32:28.775Z,5.20
2022-09-20T04:35:40.774Z,5.10
2022-09-20T04:38:16.746Z,5.00
2022-09-20T04:41:21.670Z,5.00
2022-09-20T04:44:22.371Z,4.90
2022-09-20T04:47:50.147Z,4.80
2022-09-20T04:51:12.071Z,4.70
2022-09-20T04:54:26.532Z,4.70
2022-09-20T04:57:34.317Z,4.60
2022-09-20T05:00:21.459Z,4.60
2022-09-20T05:03:44.815Z,4.50
2022-09-20T05:06:38.282Z,4.50
2022-09-20T05:09:56.945Z,4.50
2022-09-20T05:12:47.598Z,4.50
2022-09-20T05:15:36.273Z,4.50
2022-09-20T05:18:33.132Z,4.50
2022-09-20T05:21:10.619Z,4.70
2022-09-20T05:24:18.140Z,4.70
2022-09-20T05:27:29.967Z,4.80
2022-09-20T05:30:40.745Z,4.80
2022-09-20T05:33:23.800Z,4.80
2022-09-20T05:36:47.577Z,4.70
2022-09-20T05:39:33.440Z,4.70
2022-09-20T05:42:47.189Z,4.70
2022-09-20T05:45:47.284Z,4.80
2022-09-20T05:48:34.781Z,4.90
2022-09-20T05:51:45.780Z,5.00
2022-09-20T05:54:29.810Z,5.20
2022-09-20T05:57:34.100Z,5.40
2022-09-20T06:00:21.543Z,5.70
2022-09-20T06:03:32.123Z,6.50
2022-09-20T06:06:30.331Z,7.30
2022-09-20T06:09:43.081Z,8.20
2022-09-20T06:12:31.614Z,9.20
2022-09-20T06:15:19.747Z,10.00
2022-09-20T06:18:28.788Z,10.60
2022-09-20T06:21:24.678Z,11.40
2022-09-20T06:23:59.503Z,12.40
2022-09-20T06:26:33.886Z,13.00
2022-09-20T06:29:07.232Z,13.70
2022-09-20T06:31:34.257Z,14.30
2022-09-20T06:34:08.793Z,15.00
2022-09-20T06:37:00.017Z,15.80
2022-09-20T06:40:17.507Z,16.50
2022-09-20T06:42:44.707Z,17.20
2022-09-20T06:45:11.701Z,17.80
2022-09-20T06:47:40.413Z,18.30
2022-09-20T06:50:15.025Z,18.80
2022-09-20T06:52:44.903Z,19.30
2022-09-20T06:55:30.244Z,19.80
2022-09-20T06:57:57.545Z,20.50
2022-09-20T07:00:24.547Z,20.90
2022-09-20T07:02:51.419Z,21.30
2022-09-20T07:05:21.917Z,21.90
2022-09-20T07:07:48.820Z,22.20
2022-09-20T07:10:16.057Z,22.50
2022-09-20T07:12:42.864Z,22.60
2022-09-20T07:15:10.418Z,22.90
2022-09-20T07:17:37.325Z,23.30
2022-09-20T07:20:04.584Z,23.70
2022-09-20T07:22:31.460Z,23.80
2022-09-20T07:25:02.413Z,23.80
2022-09-20T07:27:30.397Z,23.90
2022-09-20T07:29:57.315Z,23.60
2022-09-20T07:32:24.185Z,23.40
2022-09-20T07:34:51.018Z,23.20
2022-09-20T07:37:19.310Z,22.90
2022-09-20T07:39:46.283Z,22.60
2022-09-20T07:42:14.065Z,21.90
2022-09-20T07:44:43.550Z,21.10
2022-09-20T07:47:11.246Z,19.70
2022-09-20T07:49:38.094Z,18.30
2022-09-20T07:52:05.083Z,17.30
2022-09-20T07:54:31.905Z,16.30
2022-09-20T07:56:59.017Z,15.70
2022-09-20T07:59:26.015Z,15.20
2022-09-20T08:01:52.867Z,15.50
2022-09-20T08:04:19.712Z,16.20
2022-09-20T08:06:46.751Z,17.30
2022-09-20T08:09:15.070Z,18.50
2022-09-20T08:11:43.498Z,19.60
2022-09-20T08:14:15.601Z,20.30
2022-09-20T08:16:47.323Z,20.70
2022-09-20T08:19:22.983Z,21.30
2022-09-20T08:21:53.318Z,21.30
2022-09-20T08:24:20.584Z,21.70
2022-09-20T08:26:48.462Z,21.80
2022-09-20T08:29:15.449Z,22.00
2022-09-20T08:31:42.870Z,22.20
2022-09-20T08:34:12.915Z,22.40
2022-09-20T08:36:46.863Z,22.40
2022-09-20T08:42:33.648Z,21.00
2022-09-20T08:45:06.828Z,19.90
2022-09-20T08:47:43.900Z,19.10
2022-09-20T08:50:19.112Z,18.30
2022-09-20T08:52:53.901Z,17.30
2022-09-20T08:55:27.951Z,16.40
2022-09-20T08:57:58.100Z,15.80
2022-09-20T09:00:33.673Z,15.20
2022-09-20T09:03:10.628Z,14.80
2022-09-20T09:05:46.645Z,14.20
2022-09-20T09:08:22.102Z,14.00
2022-09-20T09:10:56.864Z,13.70
2022-09-20T09:14:07.023Z,13.30
2022-09-20T09:16:36.446Z,13.00
2022-09-20T09:19:26.654Z,12.80
2022-09-20T09:22:03.203Z,12.70
2022-09-20T09:24:33.526Z,12.60
2022-09-20T09:27:19.710Z,12.80
2022-09-20T09:29:54.014Z,14.00
2022-09-20T09:32:29.101Z,15.50
2022-09-20T09:35:03.758Z,17.00
2022-09-20T09:37:32.571Z,18.50
2022-09-20T09:40:10.134Z,18.60
2022-09-20T09:42:37.082Z,18.10
2022-09-20T09:45:31.822Z,17.30
2022-09-20T09:48:01.554Z,16.60
2022-09-20T09:50:33.916Z,15.80
2022-09-20T09:53:09.424Z,15.10
2022-09-20T09:55:45.279Z,14.90
2022-09-20T09:58:27.237Z,16.30
2022-09-20T10:00:57.271Z,18.00
2022-09-20T10:03:53.651Z,18.90
2022-09-20T10:06:33.990Z,19.10
2022-09-20T10:09:36.211Z,19.90
2022-09-20T10:12:30.329Z,19.20
2022-09-20T10:15:19.865Z,18.00
2022-09-20T10:18:56.032Z,17.40
2022-09-20T10:21:52.543Z,16.80
2022-09-20T10:24:30.941Z,16.30
2022-09-20T10:27:38.978Z,16.30
2022-09-20T10:30:24.658Z,15.90
2022-09-20T10:32:57.425Z,15.40
2022-09-20T10:36:18.141Z,15.00
2022-09-20T10:39:20.067Z,14.90
2022-09-20T10:42:52.903Z,15.40
2022-09-20T10:46:03.887Z,16.40
2022-09-20T10:48:48.391Z,16.60
2022-09-20T10:51:54.990Z,17.20
2022-09-20T10:54:56.225Z,17.80
2022-09-20T10:58:03.824Z,18.50
2022-09-20T11:00:57.101Z,18.30
2022-09-20T11:03:57.459Z,17.50
2022-09-20T11:06:48.537Z,16.90
2022-09-20T11:09:29.532Z,16.50
2022-09-20T11:12:18.420Z,16.10
2022-09-20T11:14:54.262Z,15.90
2022-09-20T11:17:31.894Z,15.40
2022-09-20T11:20:18.590Z,15.10
2022-09-20T11:23:19.356Z,14.90
2022-09-20T11:25:58.819Z,14.80
2022-09-20T11:28:50.898Z,14.90
2022-09-20T11:31:32.763Z,15.10
2022-09-20T11:34:35.845Z,15.40
2022-09-20T11:37:03.526Z,15.60
2022-09-20T11:39:53.898Z,15.70
2022-09-20T11:42:27.225Z,15.90
2022-09-20T11:44:55.649Z,15.90
2022-09-20T11:47:55.036Z,15.80
2022-09-20T11:50:33.275Z,15.70
2022-09-20T11:53:21.733Z,15.70
2022-09-20T11:56:10.748Z,15.60
2022-09-20T11:58:50.394Z,15.70
2022-09-20T12:01:33.099Z,16.00
2022-09-20T12:04:31.311Z,16.00
2022-09-20T12:07:17.807Z,16.10
2022-09-20T12:10:04.237Z,16.00
2022-09-20T12:12:54.834Z,15.70
2022-09-20T12:15:21.527Z,15.40
2022-09-20T12:17:48.245Z,15.40
2022-09-20T12:20:34.273Z,15.50
2022-09-20T12:23:44.264Z,15.70
2022-09-20T12:26:21.562Z,15.90
2022-09-20T12:28:55.225Z,16.10
2022-09-20T12:31:22.102Z,16.10
2022-09-20T12:34:11.728Z,16.10
2022-09-20T12:36:53.779Z,16.10
2022-09-20T12:39:30.369Z,16.10
2022-09-20T12:42:12.503Z,16.20
2022-09-20T12:45:02.988Z,16.60
2022-09-20T12:47:34.792Z,16.60
2022-09-20T12:50:35.476Z,16.70
2022-09-20T12:53:12.519Z,16.80
2022-09-20T12:56:07.915Z,16.80
2022-09-20T12:58:53.710Z,16.60
2022-09-20T13:01:23.774Z,16.40
2022-09-20T13:03:51.062Z,16.30
2022-09-20T13:06:19.119Z,16.30
2022-09-20T13:08:57.153Z,16.30
2022-09-20T13:11:53.327Z,16.40
2022-09-20T13:14:31.058Z,16.40
2022-09-20T13:17:14.000Z,16.70
2022-09-20T13:19:47.054Z,16.90
2022-09-20T13:22:37.733Z,17.10
2022-09-20T13:25:13.152Z,17.20
2022-09-20T13:28:22.611Z,17.10
2022-09-20T13:30:49.426Z,17.00
2022-09-20T13:33:24.244Z,17.00
2022-09-20T13:35:56.921Z,17.00
2022-09-20T13:38:30.016Z,17.00
2022-09-20T13:41:12.939Z,16.80
2022-09-20T13:43:50.015Z,16.90
2022-09-20T13:46:29.731Z,16.80
2022-09-20T13:49:23.785Z,16.50
2022-09-20T13:51:52.030Z,16.30
2022-09-20T13:54:33.157Z,16.10
2022-09-20T13:57:12.858Z,16.10
2022-09-20T13:59:46.492Z,16.20
2022-09-20T14:02:30.885Z,16.30
2022-09-20T14:05:02.420Z,16.30
2022-09-20T14:07:30.981Z,16.50
2022-09-20T14:09:58.891Z,16.70
2022-09-20T14:12:28.000Z,16.80
2022-09-20T14:14:55.669Z,16.90
2022-09-20T14:17:24.821Z,16.80
2022-09-20T14:19:55.100Z,16.40
2022-09-20T14:22:28.903Z,16.30
2022-09-20T14:25:14.163Z,16.20
2022-09-20T14:27:41.040Z,16.20
2022-09-20T14:30:29.398Z,16.20
2022-09-20T14:32:58.476Z,16.10
2022-09-20T14:35:26.806Z,16.20
2022-09-20T14:38:00.593Z,16.10
2022-09-20T14:40:31.956Z,16.00
2022-09-20T14:43:05.566Z,15.90
2022-09-20T14:45:36.414Z,15.80
2022-09-20T14:48:30.737Z,15.80
2022-09-20T14:51:16.192Z,15.80
2022-09-20T14:53:45.609Z,15.80
2022-09-20T14:56:15.664Z,15.80
2022-09-20T14:59:13.793Z,15.70
2022-09-20T15:02:03.346Z,15.50
2022-09-20T15:04:32.691Z,15.40
2022-09-20T15:07:07.126Z,15.20
2022-09-20T15:09:35.233Z,15.10
2022-09-20T15:12:07.359Z,15.00
2022-09-20T15:14:37.865Z,14.90
2022-09-20T15:17:05.968Z,14.80
2022-09-20T15:19:32.788Z,14.70
2022-09-20T15:21:59.825Z,14.70
2022-09-20T15:24:26.918Z,14.60
2022-09-20T15:26:54.022Z,14.60
2022-09-20T15:29:20.857Z,14.50
2022-09-20T15:31:48.792Z,14.60
2022-09-20T15:34:16.276Z,14.60
2022-09-20T15:36:43.327Z,14.50
2022-09-20T15:39:10.789Z,14.40
2022-09-20T15:41:38.351Z,14.30
2022-09-20T15:44:06.516Z,14.20
2022-09-20T15:46:34.209Z,14.20
2022-09-20T15:49:03.184Z,14.10
2022-09-20T15:51:33.218Z,14.00
2022-09-20T15:54:03.977Z,14.00
2022-09-20T15:56:37.254Z,14.00
2022-09-20T15:59:07.747Z,13.90
2022-09-20T16:01:43.480Z,13.80
2022-09-20T16:04:14.241Z,13.70
2022-09-20T16:06:43.419Z,13.60
2022-09-20T16:09:10.591Z,13.40
2022-09-20T16:11:38.725Z,13.30
2022-09-20T16:14:06.505Z,13.20
2022-09-20T16:16:40.095Z,13.00
2022-09-20T16:19:24.855Z,12.90
2022-09-20T16:21:58.327Z,12.90
2022-09-20T16:24:33.032Z,12.80
2022-09-20T16:27:02.519Z,12.70
2022-09-20T16:29:30.756Z,12.70
2022-09-20T16:31:59.565Z,12.60
2022-09-20T16:34:32.458Z,12.50
2022-09-20T16:37:11.952Z,12.40
2022-09-20T16:39:40.302Z,12.30
2022-09-20T16:42:08.975Z,12.20
2022-09-20T16:44:38.964Z,12.10
2022-09-20T16:47:08.822Z,12.00
2022-09-20T16:49:37.024Z,11.90
2022-09-20T16:52:08.986Z,11.80
2022-09-20T16:54:36.035Z,11.70
2022-09-20T16:57:03.363Z,11.60
2022-09-20T16:59:30.123Z,11.50
2022-09-20T17:01:57.394Z,11.50
2022-09-20T17:04:24.411Z,11.30
2022-09-20T17:06:52.087Z,11.30
2022-09-20T17:09:19.186Z,11.20
2022-09-20T17:11:50.290Z,11.10
2022-09-20T17:14:20.255Z,11.00
2022-09-20T17:16:49.061Z,10.90
2022-09-20T17:19:19.218Z,10.80
2022-09-20T17:21:50.009Z,10.70
2022-09-20T17:24:22.387Z,10.50
2022-09-20T17:26:50.644Z,10.40
2022-09-20T17:29:19.646Z,10.10
2022-09-20T17:31:55.153Z,9.90
2022-09-20T17:34:24.592Z,9.70
2022-09-20T17:36:51.678Z,9.60
2022-09-20T17:39:18.698Z,9.40
2022-09-20T17:41:48.158Z,9.30
2022-09-20T17:44:16.482Z,9.10
2022-09-20T17:46:47.020Z,9.00
2022-09-20T17:49:19.719Z,8.90
2022-09-20T17:51:53.054Z,8.70
2022-09-20T17:54:21.343Z,8.60
2022-09-20T17:56:51.349Z,8.60
2022-09-20T17:59:20.364Z,8.50
2022-09-20T18:01:50.408Z,8.40
2022-09-20T18:04:17.639Z,8.40
2022-09-20T18:06:50.847Z,8.30
2022-09-20T18:09:24.817Z,8.40
2022-09-20T18:11:54.056Z,8.30
2022-09-20T18:14:24.506Z,8.40
2022-09-20T18:17:00.742Z,8.40
2022-09-20T18:19:32.828Z,8.50
2022-09-20T18:22:01.418Z,8.50
2022-09-20T18:24:28.244Z,8.50
2022-09-20T18:26:55.220Z,8.40
2022-09-20T18:29:22.056Z,8.40
2022-09-20T18:31:57.786Z,8.30
2022-09-20T18:34:31.235Z,8.30
2022-09-20T18:37:00.226Z,8.30
2022-09-20T18:39:32.414Z,8.30
2022-09-20T18:41:59.964Z,8.40
2022-09-20T18:44:28.149Z,8.40
2022-09-20T18:46:55.174Z,8.40
2022-09-20T18:49:22.493Z,8.50
2022-09-20T18:51:50.102Z,8.60
2022-09-20T18:54:18.807Z,8.70
2022-09-20T18:56:48.962Z,8.70
2022-09-20T18:59:23.399Z,8.80
2022-09-20T19:01:50.355Z,8.90
2022-09-20T19:04:32.643Z,9.00
2022-09-20T19:07:12.906Z,9.00
2022-09-20T19:10:06.155Z,9.10
2022-09-20T19:13:20.957Z,9.10
2022-09-20T19:16:17.289Z,9.20
2022-09-20T19:19:08.886Z,9.20
2022-09-20T19:22:18.759Z,9.30
2022-09-20T19:25:19.542Z,9.30
2022-09-20T19:27:47.227Z,9.30
2022-09-20T19:30:15.972Z,9.40
2022-09-20T19:32:44.364Z,9.40
2022-09-20T19:35:29.547Z,9.40
2022-09-20T19:38:24.556Z,9.50
2022-09-20T19:41:18.915Z,9.50
2022-09-20T19:44:30.530Z,9.50
2022-09-20T19:47:34.328Z,9.50
2022-09-20T19:50:47.041Z,9.50
2022-09-20T19:53:17.499Z,9.60
2022-09-20T19:55:52.047Z,9.60
2022-09-20T19:58:19.307Z,9.60
2022-09-20T20:00:47.496Z,9.60
2022-09-20T20:03:16.595Z,9.60
2022-09-20T20:05:56.436Z,9.60
2022-09-20T20:08:40.884Z,9.60
2022-09-20T20:11:47.114Z,9.60
2022-09-20T20:14:44.046Z,9.60
2022-09-20T20:17:43.807Z,9.50
2022-09-20T20:20:28.917Z,9.50
2022-09-20T20:23:45.458Z,9.50
2022-09-20T20:26:23.606Z,9.50
2022-09-20T20:28:54.457Z,9.40
2022-09-20T20:31:22.885Z,9.40
2022-09-20T20:33:50.090Z,9.40
2022-09-20T20:36:17.507Z,9.30
2022-09-20T20:38:49.538Z,9.30
2022-09-20T20:41:21.170Z,9.20
2022-09-20T20:43:51.770Z,9.10
2022-09-20T20:46:18.775Z,9.00
2022-09-20T20:48:47.765Z,9.00
2022-09-20T20:51:21.417Z,8.90
2022-09-20T20:53:53.783Z,8.80
2022-09-20T20:56:25.759Z,8.80
2022-09-20T20:58:53.545Z,8.70
2022-09-20T21:01:28.048Z,8.60
2022-09-20T21:03:57.430Z,8.60
2022-09-20T21:06:34.825Z,8.50
2022-09-20T21:09:03.052Z,8.50
2022-09-20T21:11:33.523Z,8.40
2022-09-20T21:14:04.830Z,8.40
2022-09-20T21:16:38.882Z,8.30
2022-09-20T21:19:06.859Z,8.30
2022-09-20T21:21:39.374Z,8.30
2022-09-20T21:24:09.707Z,8.30
2022-09-20T21:26:38.382Z,8.30
2022-09-20T21:29:09.935Z,8.30
2022-09-20T21:31:40.830Z,8.20
2022-09-20T21:34:11.043Z,8.30
2022-09-20T21:36:41.347Z,8.20
2022-09-20T21:39:08.860Z,8.10
2022-09-20T21:41:38.329Z,8.10
2022-09-20T21:44:07.376Z,8.00
2022-09-20T21:46:40.268Z,8.00
2022-09-20T21:49:10.905Z,8.00
2022-09-20T21:51:41.355Z,7.90
2022-09-20T21:54:08.634Z,7.90
2022-09-20T21:56:37.939Z,7.80
2022-09-20T21:59:06.120Z,7.70
2022-09-20T22:01:36.883Z,7.60
2022-09-20T22:04:09.891Z,7.60
2022-09-20T22:06:40.863Z,7.50
2022-09-20T22:09:11.027Z,7.50
2022-09-20T22:11:41.931Z,7.50
2022-09-20T22:14:11.517Z,7.40
2022-09-20T22:16:41.881Z,7.30
2022-09-20T22:19:12.102Z,7.20
2022-09-20T22:21:42.488Z,7.20
2022-09-20T22:24:11.899Z,7.20
2022-09-20T22:26:42.725Z,7.10
2022-09-20T22:29:10.320Z,7.00
2022-09-20T22:31:47.185Z,6.90
2022-09-20T22:34:17.881Z,7.00
2022-09-20T22:36:45.738Z,7.00
2022-09-20T22:39:14.031Z,6.90
2022-09-20T22:41:42.696Z,6.90
2022-09-20T22:44:10.883Z,6.80
2022-09-20T22:46:39.132Z,6.80
2022-09-20T22:49:08.067Z,6.70
2022-09-20T22:51:35.159Z,6.70
2022-09-20T22:54:08.177Z,6.60
2022-09-20T22:56:36.206Z,6.50
2022-09-20T22:59:10.221Z,6.40
2022-09-20T23:01:43.331Z,6.30
2022-09-20T23:04:14.315Z,6.20
2022-09-20T23:06:46.844Z,6.20
2022-09-20T23:09:16.681Z,6.10
2022-09-20T23:11:44.645Z,6.10
2022-09-20T23:14:15.292Z,6.00
2022-09-20T23:16:43.040Z,6.00
2022-09-20T23:19:11.476Z,6.00
2022-09-20T23:21:40.313Z,6.00
2022-09-20T23:24:10.465Z,5.90
2022-09-20T23:26:39.959Z,5.90
2022-09-20T23:29:13.022Z,5.90
2022-09-20T23:31:45.755Z,5.80
2022-09-20T23:34:14.254Z,5.80
2022-09-20T23:36:41.759Z,5.70
2022-09-20T23:39:10.126Z,5.60
2022-09-20T23:41:37.541Z,5.50
2022-09-20T23:44:06.494Z,5.50
2022-09-20T23:46:33.912Z,5.50
2022-09-20T23:49:00.686Z,5.50
2022-09-20T23:51:28.958Z,5.50
2022-09-20T23:53:56.096Z,5.40
2022-09-20T23:56:23.775Z,5.40
2022-09-20T23:58:51.315Z,5.30
